createdAt,value
2018-10-17T00:01:57.157Z,14.93
2018-10-17T00:04:25.679Z,14.60
2018-10-17T00:06:54.245Z,14.53
2018-10-17T00:09:22.746Z,15.37
2018-10-17T00:11:51.263Z,14.50
2018-10-17T00:14:19.761Z,14.90
2018-10-17T00:16:48.259Z,14.60
2018-10-17T00:19:16.884Z,15.00
2018-10-17T00:21:45.342Z,13.47
2018-10-17T00:24:13.868Z,15.63
2018-10-17T00:26:42.399Z,14.80
2018-10-17T00:29:11.010Z,15.13
2018-10-17T00:31:39.467Z,16.10
2018-10-17T00:34:08.010Z,14.90
2018-10-17T00:36:36.535Z,16.60
2018-10-17T00:39:11.518Z,14.40
2018-10-17T00:41:40.735Z,13.80
2018-10-17T00:44:09.296Z,15.13
2018-10-17T00:46:37.802Z,14.80
2018-10-17T00:49:06.379Z,14.60
2018-10-17T00:51:34.912Z,14.43
2018-10-17T00:54:03.490Z,15.03
2018-10-17T00:56:31.985Z,14.60
2018-10-17T00:59:08.655Z,15.10
2018-10-17T01:01:37.568Z,14.17
2018-10-17T01:04:06.697Z,15.80
2018-10-17T01:06:35.610Z,15.40
2018-10-17T01:09:08.505Z,15.00
2018-10-17T01:11:37.403Z,16.80
2018-10-17T01:14:06.562Z,16.33
2018-10-17T01:16:35.098Z,17.13
2018-10-17T01:19:04.282Z,16.60
2018-10-17T01:21:33.107Z,18.20
2018-10-17T01:24:01.647Z,17.47
2018-10-17T01:26:30.155Z,17.07
2018-10-17T01:28:58.769Z,17.77
2018-10-17T01:31:27.229Z,16.77
2018-10-17T01:33:55.815Z,17.97
2018-10-17T01:36:24.311Z,18.23
2018-10-17T01:38:52.881Z,18.50
2018-10-17T01:41:21.461Z,18.23
2018-10-17T01:43:49.991Z,18.53
2018-10-17T01:46:18.542Z,17.73
2018-10-17T01:48:47.078Z,18.40
2018-10-17T01:51:15.600Z,17.77
2018-10-17T01:53:44.170Z,17.80
2018-10-17T01:56:12.694Z,16.57
2018-10-17T01:58:41.218Z,18.10
2018-10-17T02:01:09.851Z,18.33
2018-10-17T02:03:38.378Z,17.47
2018-10-17T02:06:07.951Z,18.97
2018-10-17T02:08:36.538Z,18.07
2018-10-17T02:11:05.130Z,18.00
2018-10-17T02:13:33.631Z,18.63
2018-10-17T02:16:02.196Z,19.67
2018-10-17T02:18:30.703Z,18.80
2018-10-17T02:20:59.189Z,18.40
2018-10-17T02:23:27.718Z,18.10
2018-10-17T02:25:56.249Z,18.47
2018-10-17T02:28:24.750Z,18.30
2018-10-17T02:30:53.372Z,17.20
2018-10-17T02:33:21.825Z,16.37
2018-10-17T02:35:50.399Z,19.30
2018-10-17T02:38:18.896Z,18.20
2018-10-17T02:40:47.422Z,19.13
2018-10-17T02:43:15.966Z,17.80
2018-10-17T02:45:44.470Z,19.50
2018-10-17T02:48:12.977Z,20.00
2018-10-17T02:50:41.510Z,20.97
2018-10-17T02:53:10.063Z,19.83
2018-10-17T02:55:38.589Z,19.90
2018-10-17T02:58:07.152Z,20.90
2018-10-17T03:00:35.667Z,21.60
2018-10-17T03:03:04.220Z,21.10
2018-10-17T03:05:32.787Z,19.90
2018-10-17T03:08:01.475Z,19.53
2018-10-17T03:10:29.963Z,20.10
2018-10-17T03:12:58.583Z,18.10
2018-10-17T03:15:27.046Z,17.23
2018-10-17T03:17:55.582Z,16.57
2018-10-17T03:20:24.117Z,16.87
2018-10-17T03:22:52.654Z,16.60
2018-10-17T03:25:21.124Z,16.60
2018-10-17T03:27:49.719Z,15.47
2018-10-17T03:30:18.306Z,16.00
2018-10-17T03:32:46.966Z,15.43
2018-10-17T03:35:15.582Z,15.30
2018-10-17T03:37:44.187Z,16.93
2018-10-17T03:40:12.754Z,15.50
2018-10-17T03:42:41.249Z,15.30
2018-10-17T03:45:09.800Z,15.80
2018-10-17T03:47:38.291Z,16.00
2018-10-17T03:50:06.879Z,16.40
2018-10-17T03:52:35.359Z,15.40
2018-10-17T03:55:03.969Z,16.83
2018-10-17T03:57:32.437Z,16.97
2018-10-17T04:00:00.962Z,16.73
2018-10-17T04:02:29.481Z,15.67
2018-10-17T04:04:58.020Z,15.50
2018-10-17T04:07:26.483Z,15.47
2018-10-17T04:09:54.983Z,17.63
2018-10-17T04:12:23.473Z,17.80
2018-10-17T04:14:51.946Z,16.90
2018-10-17T04:17:20.460Z,17.97
2018-10-17T04:19:48.993Z,17.90
2018-10-17T04:22:17.536Z,18.23
2018-10-17T04:24:46.024Z,17.33
2018-10-17T04:27:14.548Z,17.23
2018-10-17T04:29:43.037Z,17.13
2018-10-17T04:32:11.555Z,17.10
2018-10-17T04:34:40.045Z,18.57
2018-10-17T04:37:08.660Z,18.03
2018-10-17T04:39:37.127Z,16.53
2018-10-17T04:42:05.646Z,15.90
2018-10-17T04:44:34.147Z,17.27
2018-10-17T04:47:02.744Z,17.77
2018-10-17T04:49:31.270Z,18.73
2018-10-17T04:51:59.758Z,19.30
2018-10-17T04:54:28.292Z,18.60
2018-10-17T04:56:56.811Z,19.30
2018-10-17T04:59:25.304Z,19.07
2018-10-17T05:01:53.799Z,18.60
2018-10-17T05:04:22.366Z,18.87
2018-10-17T05:06:50.887Z,19.07
2018-10-17T05:09:19.429Z,18.30
2018-10-17T05:11:47.969Z,17.40
2018-10-17T05:14:16.533Z,18.27
2018-10-17T05:16:45.042Z,18.53
2018-10-17T05:19:13.608Z,20.73
2018-10-17T05:21:42.099Z,19.80
2018-10-17T05:24:11.298Z,20.33
2018-10-17T05:26:39.795Z,20.43
2018-10-17T05:29:08.362Z,19.60
2018-10-17T05:31:36.854Z,20.33
2018-10-17T05:34:05.563Z,19.13
2018-10-17T05:36:34.047Z,20.07
2018-10-17T05:39:02.631Z,19.03
2018-10-17T05:41:31.163Z,19.37
2018-10-17T05:43:59.755Z,18.10
2018-10-17T05:46:28.295Z,18.27
2018-10-17T05:48:56.886Z,17.17
2018-10-17T05:51:25.394Z,16.60
2018-10-17T05:53:53.946Z,16.07
2018-10-17T05:56:22.462Z,15.60
2018-10-17T05:58:51.018Z,15.20
2018-10-17T06:01:19.618Z,15.60
2018-10-17T06:03:48.115Z,14.57
2018-10-17T06:06:16.640Z,14.80
2018-10-17T06:08:45.251Z,14.90
2018-10-17T06:11:13.895Z,14.90
2018-10-17T06:13:42.319Z,14.50
2018-10-17T06:16:10.905Z,14.27
2018-10-17T06:18:39.435Z,13.93
2018-10-17T06:21:07.934Z,13.33
2018-10-17T06:23:36.470Z,13.70
2018-10-17T06:26:05.126Z,14.67
2018-10-17T06:28:33.630Z,13.60
2018-10-17T06:31:02.387Z,13.87
2018-10-17T06:33:30.891Z,13.73
2018-10-17T06:35:59.377Z,13.50
2018-10-17T06:38:27.853Z,14.40
2018-10-17T06:40:56.538Z,12.90
2018-10-17T06:43:25.056Z,12.43
2018-10-17T06:45:53.569Z,11.60
2018-10-17T06:48:22.110Z,13.70
2018-10-17T06:50:50.636Z,13.00
2018-10-17T06:53:19.129Z,12.97
2018-10-17T06:55:47.630Z,14.80
2018-10-17T06:58:16.160Z,13.10
2018-10-17T07:00:44.695Z,12.70
2018-10-17T07:03:13.180Z,13.17
2018-10-17T07:05:41.680Z,11.53
2018-10-17T07:08:10.172Z,12.57
2018-10-17T07:10:38.671Z,12.80
2018-10-17T07:13:07.183Z,12.63
2018-10-17T07:15:35.837Z,13.33
2018-10-17T07:18:04.201Z,14.13
2018-10-17T07:20:32.713Z,12.70
2018-10-17T07:23:01.223Z,12.30
2018-10-17T07:25:29.737Z,11.23
2018-10-17T07:27:58.249Z,11.40
2018-10-17T07:30:26.763Z,10.93
2018-10-17T07:32:55.246Z,12.00
2018-10-17T07:35:23.769Z,11.17
2018-10-17T07:37:52.566Z,10.30
2018-10-17T07:40:21.090Z,10.30
2018-10-17T07:42:49.644Z,10.60
2018-10-17T07:45:18.171Z,11.20
2018-10-17T07:47:46.717Z,11.27
2018-10-17T07:50:15.247Z,11.20
2018-10-17T07:52:43.756Z,11.20
2018-10-17T07:55:13.090Z,12.60
2018-10-17T07:57:41.619Z,11.83
2018-10-17T08:00:12.499Z,11.83
2018-10-17T08:02:40.977Z,12.30
2018-10-17T08:05:09.926Z,11.23
2018-10-17T08:07:38.470Z,12.07
2018-10-17T08:10:08.255Z,12.10
2018-10-17T08:12:36.796Z,11.97
2018-10-17T08:15:06.979Z,11.70
2018-10-17T08:17:35.512Z,12.10
2018-10-17T08:20:04.069Z,12.83
2018-10-17T08:22:32.573Z,11.67
2018-10-17T08:25:01.132Z,12.17
2018-10-17T08:27:29.682Z,11.70
2018-10-17T08:29:58.267Z,11.33
2018-10-17T08:32:26.752Z,11.30
2018-10-17T08:34:55.303Z,12.20
2018-10-17T08:37:24.145Z,12.77
2018-10-17T08:39:52.347Z,11.77
2018-10-17T08:42:20.880Z,11.27
2018-10-17T08:44:49.458Z,11.87
2018-10-17T08:47:18.009Z,13.00
2018-10-17T08:49:46.550Z,12.53
2018-10-17T08:52:15.101Z,12.30
2018-10-17T08:54:43.620Z,11.77
2018-10-17T08:57:12.135Z,11.40
2018-10-17T08:59:40.691Z,11.73
2018-10-17T09:02:09.283Z,12.13
2018-10-17T09:04:37.824Z,10.83
2018-10-17T09:07:06.542Z,11.07
2018-10-17T09:09:35.050Z,10.33
2018-10-17T09:12:03.645Z,11.47
2018-10-17T09:14:32.095Z,10.03
2018-10-17T09:17:00.635Z,9.80
2018-10-17T09:19:29.229Z,9.27
2018-10-17T09:21:58.011Z,10.00
2018-10-17T09:24:26.242Z,10.23
2018-10-17T09:26:54.812Z,10.20
2018-10-17T09:29:23.359Z,11.03
2018-10-17T09:31:51.929Z,8.70
2018-10-17T09:34:20.418Z,10.90
2018-10-17T09:36:48.998Z,9.27
2018-10-17T09:39:17.502Z,9.80
2018-10-17T09:41:46.023Z,9.70
2018-10-17T09:44:14.523Z,9.47
2018-10-17T09:46:43.167Z,11.13
2018-10-17T09:49:11.663Z,9.00
2018-10-17T09:51:40.256Z,9.67
2018-10-17T09:54:08.788Z,9.20
2018-10-17T09:56:37.272Z,9.50
2018-10-17T09:59:05.806Z,8.90
2018-10-17T10:01:38.575Z,8.07
2018-10-17T10:04:07.835Z,9.23
2018-10-17T10:06:36.296Z,8.70
2018-10-17T10:09:07.005Z,8.90
2018-10-17T10:11:35.538Z,9.23
2018-10-17T10:14:04.968Z,8.40
2018-10-17T10:16:33.511Z,9.03
2018-10-17T10:19:02.032Z,9.20
2018-10-17T10:21:30.572Z,8.73
2018-10-17T10:23:59.903Z,8.77
2018-10-17T10:26:28.391Z,8.50
2018-10-17T10:28:56.943Z,9.07
2018-10-17T10:31:25.815Z,8.30
2018-10-17T10:33:54.396Z,8.00
2018-10-17T10:36:23.019Z,8.50
2018-10-17T10:38:51.740Z,7.60
2018-10-17T10:41:20.267Z,8.20
2018-10-17T10:43:48.807Z,7.97
2018-10-17T10:46:17.335Z,7.93
2018-10-17T10:48:45.867Z,8.13
2018-10-17T10:51:14.480Z,8.63
2018-10-17T10:53:42.941Z,8.00
2018-10-17T10:56:11.555Z,8.00
2018-10-17T10:58:40.151Z,7.63
2018-10-17T11:01:08.546Z,9.47
2018-10-17T11:03:37.080Z,8.27
2018-10-17T11:06:05.982Z,8.80
2018-10-17T11:08:34.527Z,9.53
2018-10-17T11:11:03.133Z,8.50
2018-10-17T11:13:31.594Z,9.40
2018-10-17T11:16:00.138Z,9.93
2018-10-17T11:18:28.655Z,8.60
2018-10-17T11:20:57.352Z,9.33
2018-10-17T11:23:25.870Z,10.50
2018-10-17T11:25:54.423Z,9.53
2018-10-17T11:28:22.924Z,8.30
2018-10-17T11:30:51.512Z,8.47
2018-10-17T11:33:20.053Z,7.90
2018-10-17T11:35:48.650Z,8.93
2018-10-17T11:38:17.126Z,9.23
2018-10-17T11:40:45.787Z,9.60
2018-10-17T11:43:14.306Z,12.00
2018-10-17T11:45:42.880Z,12.10
2018-10-17T11:48:11.512Z,11.00
2018-10-17T11:50:40.094Z,11.27
2018-10-17T11:53:08.689Z,11.03
2018-10-17T11:55:37.194Z,9.90
2018-10-17T11:58:05.782Z,10.50
2018-10-17T12:00:34.298Z,8.87
2018-10-17T12:03:02.978Z,8.07
2018-10-17T12:05:31.744Z,7.33
2018-10-17T12:08:00.223Z,7.07
2018-10-17T12:10:28.735Z,7.10
2018-10-17T12:12:57.302Z,6.90
2018-10-17T12:15:25.827Z,7.20
2018-10-17T12:17:54.400Z,7.87
2018-10-17T12:20:22.861Z,6.87
2018-10-17T12:22:51.404Z,6.37
2018-10-17T12:25:19.924Z,7.33
2018-10-17T12:27:48.507Z,7.50
2018-10-17T12:30:17.186Z,7.90
2018-10-17T12:32:45.689Z,8.07
2018-10-17T12:35:14.283Z,7.37
2018-10-17T12:37:42.809Z,6.80
2018-10-17T12:40:11.825Z,7.00
2018-10-17T12:42:40.299Z,7.23
2018-10-17T12:45:08.874Z,7.30
2018-10-17T12:47:37.464Z,7.13
2018-10-17T12:50:07.069Z,7.33
2018-10-17T12:52:35.641Z,7.10
2018-10-17T12:55:05.002Z,6.60
2018-10-17T12:57:33.530Z,7.10
2018-10-17T13:00:02.034Z,6.80
2018-10-17T13:02:30.596Z,6.87
2018-10-17T13:04:59.140Z,7.13
2018-10-17T13:07:27.665Z,7.20
2018-10-17T13:09:56.194Z,6.73
2018-10-17T13:12:24.724Z,7.23
2018-10-17T13:14:53.346Z,6.10
2018-10-17T13:17:21.858Z,6.67
2018-10-17T13:19:50.486Z,6.63
2018-10-17T13:22:18.982Z,5.50
2018-10-17T13:24:47.681Z,6.47
2018-10-17T13:27:16.063Z,6.73
2018-10-17T13:29:44.622Z,6.03
2018-10-17T13:32:13.105Z,5.97
2018-10-17T13:34:41.718Z,6.70
2018-10-17T13:37:10.314Z,6.00
2018-10-17T13:39:38.854Z,6.33
2018-10-17T13:42:07.428Z,6.60
2018-10-17T13:44:35.899Z,6.47
2018-10-17T13:47:05.079Z,6.40
2018-10-17T13:49:33.595Z,6.50
2018-10-17T13:52:01.986Z,6.60
2018-10-17T13:54:30.509Z,6.30
2018-10-17T13:56:59.047Z,6.40
2018-10-17T13:59:27.555Z,6.20
2018-10-17T14:01:56.074Z,5.97
2018-10-17T14:04:24.573Z,6.73
2018-10-17T14:06:53.123Z,6.50
2018-10-17T14:09:21.586Z,6.70
2018-10-17T14:11:50.084Z,6.00
2018-10-17T14:14:18.579Z,5.83
2018-10-17T14:16:47.099Z,6.93
2018-10-17T14:19:18.256Z,6.40
2018-10-17T14:21:46.756Z,5.97
2018-10-17T14:24:15.303Z,5.57
2018-10-17T14:26:43.899Z,5.90
2018-10-17T14:29:12.413Z,6.77
2018-10-17T14:31:40.967Z,5.70
2018-10-17T14:34:09.505Z,6.17
2018-10-17T14:36:38.076Z,6.93
2018-10-17T14:39:09.442Z,6.30
2018-10-17T14:41:37.974Z,7.50
2018-10-17T14:44:06.692Z,6.27
2018-10-17T14:46:35.354Z,6.60
2018-10-17T14:49:04.135Z,5.93
2018-10-17T14:51:32.669Z,5.50
2018-10-17T14:54:01.230Z,5.60
2018-10-17T14:56:29.718Z,5.53
2018-10-17T14:58:58.319Z,7.07
2018-10-17T15:01:26.799Z,6.07
2018-10-17T15:03:55.334Z,5.80
2018-10-17T15:06:23.826Z,5.57
2018-10-17T15:08:52.379Z,5.90
2018-10-17T15:11:21.019Z,5.60
2018-10-17T15:13:49.453Z,6.17
2018-10-17T15:16:17.977Z,5.93
2018-10-17T15:18:46.516Z,6.50
2018-10-17T15:21:15.046Z,6.23
2018-10-17T15:23:43.720Z,5.97
2018-10-17T15:26:12.233Z,6.33
2018-10-17T15:28:40.795Z,5.60
2018-10-17T15:31:09.367Z,5.50
2018-10-17T15:33:38.175Z,6.40
2018-10-17T15:36:07.095Z,6.40
2018-10-17T15:38:36.177Z,6.30
2018-10-17T15:41:04.776Z,6.70
2018-10-17T15:43:36.339Z,6.00
2018-10-17T15:46:04.885Z,6.57
2018-10-17T15:48:33.426Z,7.83
2018-10-17T15:51:02.022Z,7.33
2018-10-17T15:53:30.579Z,8.07
2018-10-17T15:55:59.068Z,8.00
2018-10-17T15:58:27.579Z,9.20
2018-10-17T16:00:56.143Z,8.67
2018-10-17T16:03:24.643Z,8.40
2018-10-17T16:05:53.206Z,9.30
2018-10-17T16:08:21.687Z,9.80
2018-10-17T16:10:50.231Z,8.90
2018-10-17T16:13:18.770Z,9.70
2018-10-17T16:15:47.295Z,11.03
2018-10-17T16:18:16.015Z,10.50
2018-10-17T16:20:44.537Z,10.67
2018-10-17T16:23:13.080Z,9.87
2018-10-17T16:25:41.587Z,9.20
2018-10-17T16:28:10.325Z,8.73
2018-10-17T16:30:38.994Z,10.40
2018-10-17T16:33:07.401Z,8.70
2018-10-17T16:35:35.919Z,9.60
2018-10-17T16:38:04.874Z,8.90
2018-10-17T16:40:33.375Z,8.80
2018-10-17T16:43:01.878Z,9.13
2018-10-17T16:45:30.410Z,9.13
2018-10-17T16:47:58.916Z,8.87
2018-10-17T16:50:27.526Z,10.07
2018-10-17T16:52:56.018Z,9.57
2018-10-17T16:55:24.587Z,9.47
2018-10-17T16:57:53.077Z,10.37
2018-10-17T17:00:21.562Z,9.90
2018-10-17T17:02:50.035Z,9.60
2018-10-17T17:05:18.551Z,10.00
2018-10-17T17:07:47.147Z,9.20
2018-10-17T17:10:15.701Z,9.53
2018-10-17T17:12:44.335Z,10.00
2018-10-17T17:15:12.921Z,10.47
2018-10-17T17:17:41.368Z,11.30
2018-10-17T17:20:11.012Z,11.07
2018-10-17T17:22:40.620Z,11.10
2018-10-17T17:25:09.359Z,10.47
2018-10-17T17:27:38.199Z,11.57
2018-10-17T17:30:11.966Z,10.63
2018-10-17T17:32:40.450Z,11.07
2018-10-17T17:35:09.007Z,11.33
2018-10-17T17:37:37.616Z,11.90
2018-10-17T17:40:07.579Z,11.47
2018-10-17T17:42:36.139Z,11.70
2018-10-17T17:45:04.740Z,11.13
2018-10-17T17:47:33.309Z,12.80
2018-10-17T17:50:01.891Z,10.93
2018-10-17T17:52:30.434Z,11.03
2018-10-17T17:54:58.978Z,10.97
2018-10-17T17:57:27.508Z,11.43
2018-10-17T17:59:56.053Z,10.67
2018-10-17T18:02:24.601Z,10.87
2018-10-17T18:04:53.213Z,10.87
2018-10-17T18:07:21.893Z,11.63
2018-10-17T18:09:50.394Z,11.97
2018-10-17T18:12:18.986Z,10.70
2018-10-17T18:14:47.515Z,11.33
2018-10-17T18:17:16.132Z,13.30
2018-10-17T18:19:44.721Z,12.60
2018-10-17T18:22:13.306Z,13.03
2018-10-17T18:24:41.867Z,13.27
2018-10-17T18:27:10.446Z,12.53
2018-10-17T18:29:38.942Z,13.90
2018-10-17T18:32:07.632Z,15.83
2018-10-17T18:34:36.145Z,13.63
2018-10-17T18:37:04.752Z,15.67
2018-10-17T18:39:33.276Z,13.93
2018-10-17T18:42:01.923Z,16.97
2018-10-17T18:44:30.458Z,15.03
2018-10-17T18:46:59.032Z,16.27
2018-10-17T18:49:27.574Z,16.17
2018-10-17T18:51:56.151Z,16.50
2018-10-17T18:54:24.764Z,15.40
2018-10-17T18:56:53.396Z,17.33
2018-10-17T18:59:21.888Z,16.23
2018-10-17T19:01:50.398Z,15.27
2018-10-17T19:04:19.031Z,15.10
2018-10-17T19:06:47.514Z,15.03
2018-10-17T19:09:16.108Z,14.40
2018-10-17T19:11:44.562Z,16.20
2018-10-17T19:14:13.415Z,16.37
2018-10-17T19:16:41.961Z,15.57
2018-10-17T19:19:10.564Z,16.10
2018-10-17T19:21:39.055Z,17.67
2018-10-17T19:24:07.609Z,17.30
2018-10-17T19:26:37.803Z,19.70
2018-10-17T19:29:06.422Z,18.20
2018-10-17T19:31:35.466Z,18.87
2018-10-17T19:34:04.047Z,21.00
2018-10-17T19:36:32.617Z,19.70
2018-10-17T19:39:01.260Z,20.33
2018-10-17T19:41:29.741Z,19.50
2018-10-17T19:43:58.265Z,20.33
2018-10-17T19:46:26.794Z,20.73
2018-10-17T19:48:55.284Z,21.80
2018-10-17T19:51:23.904Z,21.40
2018-10-17T19:53:52.448Z,22.80
2018-10-17T19:56:21.033Z,24.07
2018-10-17T19:58:49.622Z,26.17
2018-10-17T20:01:18.197Z,27.57
2018-10-17T20:03:46.767Z,28.73
2018-10-17T20:06:15.299Z,30.67
2018-10-17T20:08:43.917Z,32.77
2018-10-17T20:11:12.440Z,35.90
2018-10-17T20:13:40.967Z,36.90
2018-10-17T20:16:09.508Z,38.33
2018-10-17T20:18:38.036Z,37.40
2018-10-17T20:21:06.614Z,39.73
2018-10-17T20:23:35.135Z,43.27
2018-10-17T20:26:03.719Z,41.47
2018-10-17T20:28:32.221Z,43.77
2018-10-17T20:31:00.890Z,47.83
2018-10-17T20:33:29.395Z,48.00
2018-10-17T20:35:57.984Z,47.63
2018-10-17T20:38:26.562Z,50.47
2018-10-17T20:40:55.103Z,48.97
2018-10-17T20:43:23.637Z,52.27
2018-10-17T20:45:52.227Z,49.50
2018-10-17T20:48:20.768Z,50.23
2018-10-17T20:50:49.329Z,52.20
2018-10-17T20:53:17.869Z,48.33
2018-10-17T20:55:46.442Z,50.30
2018-10-17T20:58:15.078Z,49.37
2018-10-17T21:00:43.528Z,49.37
2018-10-17T21:03:12.044Z,55.87
2018-10-17T21:05:40.602Z,54.67
2018-10-17T21:08:09.187Z,56.73
2018-10-17T21:10:37.687Z,56.47
2018-10-17T21:13:06.270Z,58.77
2018-10-17T21:15:35.847Z,62.67
2018-10-17T21:18:04.485Z,62.60
2018-10-17T21:20:32.991Z,59.10
2018-10-17T21:23:01.545Z,59.27
2018-10-17T21:25:30.091Z,55.90
2018-10-17T21:27:58.675Z,57.70
2018-10-17T21:30:27.210Z,58.37
2018-10-17T21:32:55.721Z,55.93
2018-10-17T21:35:24.272Z,57.83
2018-10-17T21:37:52.868Z,59.00
2018-10-17T21:40:21.416Z,57.47
2018-10-17T21:42:49.967Z,57.83
2018-10-17T21:45:18.518Z,60.57
2018-10-17T21:47:47.082Z,60.03
2018-10-17T21:50:15.735Z,59.40
2018-10-17T21:52:44.225Z,62.00
2018-10-17T21:55:12.740Z,60.20
2018-10-17T21:57:41.251Z,63.40
2018-10-17T22:00:10.838Z,62.50
2018-10-17T22:02:39.845Z,62.53
2018-10-17T22:05:12.663Z,58.20
2018-10-17T22:07:41.167Z,58.37
2018-10-17T22:10:09.903Z,62.27
2018-10-17T22:12:38.456Z,62.30
2018-10-17T22:15:08.517Z,62.87
2018-10-17T22:17:37.057Z,67.60
2018-10-17T22:20:06.060Z,66.70
2018-10-17T22:22:34.574Z,62.07
2018-10-17T22:25:03.123Z,62.33
2018-10-17T22:27:31.659Z,67.63
2018-10-17T22:30:00.240Z,59.43
2018-10-17T22:32:28.729Z,67.77
2018-10-17T22:34:57.318Z,72.10
2018-10-17T22:37:25.837Z,69.83
2018-10-17T22:39:54.321Z,70.60
2018-10-17T22:42:22.839Z,67.73
2018-10-17T22:44:51.373Z,69.60
2018-10-17T22:47:19.902Z,71.93
2018-10-17T22:49:48.423Z,66.50
2018-10-17T22:52:16.967Z,67.00
2018-10-17T22:54:45.599Z,65.37
2018-10-17T22:57:14.326Z,69.63
2018-10-17T22:59:42.843Z,71.10
2018-10-17T23:02:11.492Z,74.47
2018-10-17T23:04:39.919Z,72.93
2018-10-17T23:07:08.499Z,77.23
2018-10-17T23:09:37.036Z,78.60
2018-10-17T23:12:05.962Z,72.53
2018-10-17T23:14:34.494Z,75.67
2018-10-17T23:17:02.974Z,76.93
2018-10-17T23:19:31.653Z,75.10
2018-10-17T23:22:00.135Z,73.57
2018-10-17T23:24:28.663Z,73.33
2018-10-17T23:26:57.191Z,75.37
2018-10-17T23:29:25.777Z,75.90
2018-10-17T23:31:54.297Z,77.23
2018-10-17T23:34:22.857Z,73.47
2018-10-17T23:36:51.374Z,77.87
2018-10-17T23:39:19.924Z,76.33
2018-10-17T23:41:48.425Z,78.70
2018-10-17T23:44:16.999Z,72.67
2018-10-17T23:46:45.494Z,71.20
2018-10-17T23:49:13.980Z,75.67
2018-10-17T23:51:42.555Z,69.77
2018-10-17T23:54:11.258Z,73.40
2018-10-17T23:56:39.745Z,74.57
2018-10-17T23:59:08.271Z,75.83
